LTS weather

Altus Air Force Base
Altus, Oklahoma, United States

Public forecast

Using degrees Fahrenheit for public forecast. Weather courtesy of forecast.io.

Current aviation weather report (METAR) for Altus Air Force Base

Retrieved 2020/02/25 20:56 UTC (41 minutes ago):

KLTS 252056Z AUTO 33025G30KT 10SM FEW060 11/M08 A3006 RMK AO2 PK WND 31032/18 SLP181 T01061081 55003

Aviation forecast (TAF) for Altus Air Force Base

Retrieved 2020/02/25 17:12 UTC (4 hours ago):

TAF TAF KLTS 251700Z 2517/2623 32018G28KT 9999 SCT150 510053 QNH3002INS BECMG 2519/2520 33025G30KT 9999 SCT100 510003 QNH3001INS BECMG 2523/2524 34012G18KT 9999 SCT030 BKN045 620454 510042 QNH3004INS TEMPO 2602/2606 34025G35KT 9000 -RA BKN022 650226 510003 BECMG 2605/2606 35018KT 9999 BKN030 QNH3028INS BECMG 2608/2609 35020KT 9999 SCT028 QNH3034INS BECMG 2614/2615 34015G20KT 9999 FEW050 510021 QNH3037INS TX11/2521Z TNM01/2612Z